^^
Datos históricos de la estación: Murcia-Puente Tocinos
Diario Informe para Julio 1, 2019 Unidades:  Ambas    Ingés   Métrico
Diario Semanal Mensual Anual
  Máxima: Mínima: Promedio:
Temperatura: 93.4 °F /  34.1 °C 70.2 °F /  21.2 °C 78.8 °F /  26 °C
Punto de rocio: 68.5 °F /  20.3 °C 48.9 °F /  9.4 °C 61.5 °F /  16.4 °C
Humedad: 92% 22.9% 62%
Velocidad viento: 6.9mph /  11.1km/h - 4.3mph /  6.9km/h
Racha viento: 15mph /  24.1km/h - -
Viento- - SSO
Presión: 29.9 in /  1014.0 hPa 29.7 in /  1007.2 hPa -
Precipitación: 0 in /  0.0 mm    
 
 
Tabla de datos para Julio 1, 2019
Hora Temperatura Punto de rocio Presión Viento Velocidad viento Racha viento Humedad Intensidad lluvia(por hora) Nubes
00:04 71.4 °F /  21.9 °C 68 °F /  20 °C 29.9in /  1014.0hPa NNO 2.9mph /  4.6km/h 5mph /  8km/h 89.2% 0in /  0.0mm
00:09 71.4 °F /  21.9 °C 68 °F /  20 °C 29.9in /  1014.0hPa North 2.6mph /  4.2km/h 4.6mph /  7.4km/h 89% 0in /  0.0mm
00:14 71.2 °F /  21.8 °C 68.2 °F /  20.1 °C 29.9in /  1014.0hPa North 1.8mph /  2.9km/h 5.2mph /  8.4km/h 89.8% 0in /  0.0mm
00:19 71.2 °F /  21.8 °C 68.2 °F /  20.1 °C 29.9in /  1014.0hPa NNO 2.1mph /  3.3km/h 5mph /  8km/h 90% 0in /  0.0mm
00:24 71.2 °F /  21.8 °C 68.2 °F /  20.1 °C 29.9in /  1013.9hPa NNO 2.9mph /  4.7km/h 5mph /  8km/h 90% 0in /  0.0mm
00:29 71.1 °F /  21.7 °C 68 °F /  20 °C 29.9in /  1013.9hPa North 2.7mph /  4.4km/h 5mph /  8km/h 90% 0in /  0.0mm
00:34 71.1 °F /  21.7 °C 68 °F /  20 °C 29.9in /  1013.9hPa NNE 2.4mph /  3.9km/h 5.2mph /  8.4km/h 90% 0in /  0.0mm
00:39 71.1 °F /  21.7 °C 68 °F /  20 °C 29.9in /  1013.9hPa NE 2.5mph /  4.1km/h 5.2mph /  8.4km/h 90% 0in /  0.0mm
00:44 70.9 °F /  21.6 °C 67.8 °F /  19.9 °C 29.9in /  1013.9hPa NNE 2.9mph /  4.7km/h 5.2mph /  8.4km/h 90% 0in /  0.0mm
00:49 70.7 °F /  21.5 °C 67.8 °F /  19.9 °C 29.9in /  1014.0hPa NNE 2.9mph /  4.7km/h 5mph /  8km/h 90.9% 0in /  0.0mm
00:54 70.5 °F /  21.4 °C 67.8 °F /  19.9 °C 29.9in /  1014.0hPa NNE 3.1mph /  5km/h 5mph /  8km/h 91% 0in /  0.0mm
00:59 70.5 °F /  21.4 °C 67.8 °F /  19.9 °C 29.9in /  1014.0hPa NE 2.9mph /  4.6km/h 5mph /  8km/h 91% 0in /  0.0mm
01:04 70.5 °F /  21.4 °C 67.8 °F /  19.9 °C 29.9in /  1014.0hPa NE 2.4mph /  3.9km/h 4mph /  6.4km/h 91% 0in /  0.0mm
01:09 70.5 °F /  21.4 °C 67.8 °F /  19.9 °C 29.9in /  1013.9hPa NNE 2.3mph /  3.7km/h 4.6mph /  7.4km/h 91% 0in /  0.0mm
01:14 70.3 °F /  21.3 °C 67.6 °F /  19.8 °C 29.9in /  1013.9hPa NNE 2mph /  3.2km/h 5mph /  8km/h 91% 0in /  0.0mm
01:19 70.3 °F /  21.3 °C 67.6 °F /  19.8 °C 29.9in /  1013.9hPa North 2.2mph /  3.6km/h 5.2mph /  8.4km/h 91.3% 0in /  0.0mm
01:24 70.3 °F /  21.3 °C 67.8 °F /  19.9 °C 29.9in /  1013.8hPa North 2.9mph /  4.7km/h 5.2mph /  8.4km/h 92% 0in /  0.0mm
01:29 70.3 °F /  21.3 °C 67.8 °F /  19.9 °C 29.9in /  1013.8hPa NNE 2.9mph /  4.7km/h 5mph /  8km/h 92% 0in /  0.0mm
01:34 70.3 °F /  21.3 °C 67.8 °F /  19.9 °C 29.9in /  1013.8hPa NNE 2.9mph /  4.7km/h 5mph /  8km/h 92% 0in /  0.0mm
01:39 70.2 °F /  21.2 °C 67.8 °F /  19.9 °C 29.9in /  1013.5hPa NE 2.8mph /  4.5km/h 5mph /  8km/h 92% 0in /  0.0mm
01:44 70.2 °F /  21.2 °C 67.6 °F /  19.8 °C 29.9in /  1013.5hPa NE 2.4mph /  3.9km/h 5mph /  8km/h 92% 0in /  0.0mm
01:49 70.2 °F /  21.2 °C 67.6 °F /  19.8 °C 29.9in /  1013.5hPa NE 2.4mph /  3.9km/h 5mph /  8km/h 92% 0in /  0.0mm
01:54 70.3 °F /  21.3 °C 67.8 °F /  19.9 °C 29.9in /  1013.5hPa NE 2.4mph /  3.9km/h 4mph /  6.4km/h 92% 0in /  0.0mm
01:59 70.3 °F /  21.3 °C 67.8 °F /  19.9 °C 29.9in /  1013.5hPa NE 2.2mph /  3.6km/h 2.9mph /  4.7km/h 92% 0in /  0.0mm
02:04 70.3 °F /  21.3 °C 67.8 °F /  19.9 °C 29.9in /  1013.5hPa NE 1.8mph /  2.9km/h 3.5mph /  5.6km/h 92% 0in /  0.0mm
02:09 70.3 °F /  21.3 °C 67.8 °F /  19.9 °C 29.9in /  1013.3hPa NNE 1.8mph /  2.9km/h 4.6mph /  7.4km/h 92% 0in /  0.0mm
02:14 70.3 °F /  21.3 °C 68 °F /  20 °C 29.9in /  1013.3hPa NNE 1.8mph /  2.9km/h 5mph /  8km/h 92% 0in /  0.0mm
02:19 70.3 °F /  21.3 °C 68 °F /  20 °C 29.9in /  1013.3hPa NNE 1.7mph /  2.7km/h 4mph /  6.4km/h 92% 0in /  0.0mm
02:24 70.5 °F /  21.4 °C 68.2 °F /  20.1 °C 29.9in /  1013.2hPa NE 1.4mph /  2.2km/h 3.6mph /  5.8km/h 92% 0in /  0.0mm
02:29 70.5 °F /  21.4 °C 68.2 °F /  20.1 °C 29.9in /  1013.2hPa NE 1.4mph /  2.2km/h 4mph /  6.4km/h 92% 0in /  0.0mm
02:34 70.7 °F /  21.5 °C 68.4 °F /  20.2 °C 29.9in /  1013.4hPa SSO 1.4mph /  2.2km/h 3.5mph /  5.6km/h 92% 0in /  0.0mm
02:39 70.9 °F /  21.6 °C 68.4 °F /  20.2 °C 29.9in /  1013.4hPa SSO 1.5mph /  2.4km/h 3mph /  4.8km/h 92% 0in /  0.0mm
02:44 70.9 °F /  21.6 °C 68.4 °F /  20.2 °C 29.9in /  1013.4hPa SSO 1.8mph /  2.9km/h 2.4mph /  3.9km/h 91.7% 0in /  0.0mm
02:49 71.1 °F /  21.7 °C 68.4 °F /  20.2 °C 29.9in /  1013.4hPa SSO 1.4mph /  2.2km/h 4mph /  6.4km/h 91.1% 0in /  0.0mm
02:54 71.1 °F /  21.7 °C 68.4 °F /  20.2 °C 29.9in /  1013.3hPa Calm   5mph /  8km/h 91% 0in /  0.0mm
02:59 71.2 °F /  21.8 °C 68.5 °F /  20.3 °C 29.9in /  1013.3hPa Este 0.5mph /  0.8km/h 5mph /  8km/h 91% 0in /  0.0mm
03:04 71.2 °F /  21.8 °C 68.4 °F /  20.2 °C 29.9in /  1013.3hPa NNO 1.8mph /  2.9km/h 4.7mph /  7.6km/h 90.5% 0in /  0.0mm
03:09 71.4 °F /  21.9 °C 68.4 °F /  20.2 °C 29.9in /  1013.1hPa NNO 2.1mph /  3.3km/h 5mph /  8km/h 90% 0in /  0.0mm
03:14 71.4 °F /  21.9 °C 68.4 °F /  20.2 °C 29.9in /  1013.1hPa NNE 2.9mph /  4.7km/h 5mph /  8km/h 90% 0in /  0.0mm
03:19 71.4 °F /  21.9 °C 68.4 °F /  20.2 °C 29.9in /  1013.1hPa North 2.7mph /  4.3km/h 5mph /  8km/h 90% 0in /  0.0mm
03:24 71.6 °F /  22 °C 68.5 °F /  20.3 °C 29.9in /  1012.9hPa North 2mph /  3.2km/h 3.6mph /  5.8km/h 90% 0in /  0.0mm
03:29 71.6 °F /  22 °C 68.5 °F /  20.3 °C 29.9in /  1012.9hPa North 2mph /  3.2km/h 4.6mph /  7.4km/h 90% 0in /  0.0mm
03:34 71.8 °F /  22.1 °C 68.5 °F /  20.3 °C 29.9in /  1012.9hPa NNO 2mph /  3.2km/h 6.2mph /  10km/h 89.7% 0in /  0.0mm
03:39 71.8 °F /  22.1 °C 68.4 °F /  20.2 °C 29.9in /  1012.6hPa NO 2.2mph /  3.6km/h 6mph /  9.7km/h 89% 0in /  0.0mm
03:44 71.8 °F /  22.1 °C 68.4 °F /  20.2 °C 29.9in /  1012.6hPa NO 2.9mph /  4.7km/h 6mph /  9.7km/h 89% 0in /  0.0mm
03:49 71.8 °F /  22.1 °C 68.4 °F /  20.2 °C 29.9in /  1012.6hPa Oeste 2.8mph /  4.5km/h 5mph /  8km/h 89% 0in /  0.0mm
03:54 71.8 °F /  22.1 °C 68.2 °F /  20.1 °C 29.9in /  1012.4hPa Oeste 2.4mph /  3.9km/h 4.7mph /  7.6km/h 88.3% 0in /  0.0mm
03:59 71.8 °F /  22.1 °C 68 °F /  20 °C 29.9in /  1012.4hPa Oeste 2.4mph /  3.9km/h 6.9mph /  11.1km/h 88% 0in /  0.0mm
04:04 71.8 °F /  22.1 °C 68 °F /  20 °C 29.9in /  1012.4hPa SO 2.4mph /  3.9km/h 7mph /  11.3km/h 88% 0in /  0.0mm
04:09 71.8 °F /  22.1 °C 68 °F /  20 °C 29.9in /  1012.3hPa Oeste 2.5mph /  4.1km/h 6mph /  9.7km/h 88% 0in /  0.0mm
04:14 71.8 °F /  22.1 °C 68 °F /  20 °C 29.9in /  1012.3hPa North 2.9mph /  4.7km/h 6.4mph /  10.3km/h 88% 0in /  0.0mm
04:19 71.8 °F /  22.1 °C 68 °F /  20 °C 29.9in /  1012.3hPa NO 2.9mph /  4.7km/h 7mph /  11.3km/h 88% 0in /  0.0mm
04:24 71.8 °F /  22.1 °C 68 °F /  20 °C 29.9in /  1012.2hPa NO 2.9mph /  4.7km/h 6mph /  9.7km/h 88% 0in /  0.0mm
04:29 71.8 °F /  22.1 °C 68 °F /  20 °C 29.9in /  1012.2hPa NNO 2.8mph /  4.5km/h 5mph /  8km/h 88% 0in /  0.0mm
04:34 71.8 °F /  22.1 °C 68 °F /  20 °C 29.9in /  1012.2hPa NO 2.4mph /  3.9km/h 3.5mph /  5.6km/h 88% 0in /  0.0mm
04:39 71.8 °F /  22.1 °C 68 °F /  20 °C 29.9in /  1012.0hPa Oeste 2.3mph /  3.7km/h 4.6mph /  7.4km/h 88% 0in /  0.0mm
04:44 71.8 °F /  22.1 °C 68 °F /  20 °C 29.9in /  1012.0hPa OSO 2mph /  3.2km/h 5.2mph /  8.4km/h 88% 0in /  0.0mm
04:49 72 °F /  22.2 °C 68.2 °F /  20.1 °C 29.9in /  1012.0hPa Oeste 2.2mph /  3.6km/h 5mph /  8km/h 87.9% 0in /  0.0mm
04:54 72 °F /  22.2 °C 67.8 °F /  19.9 °C 29.9in /  1011.8hPa Oeste 2.9mph /  4.7km/h 5mph /  8km/h 87% 0in /  0.0mm
04:59 72 °F /  22.2 °C 67.8 °F /  19.9 °C 29.9in /  1011.8hPa Oeste 2.6mph /  4.2km/h 5mph /  8km/h 87% 0in /  0.0mm
05:04 72 °F /  22.2 °C 67.8 °F /  19.9 °C 29.9in /  1011.8hPa OSO 2mph /  3.2km/h 5mph /  8km/h 87% 0in /  0.0mm
05:09 72.1 °F /  22.3 °C 68 °F /  20 °C 29.9in /  1011.7hPa SO 2.1mph /  3.4km/h 5.2mph /  8.4km/h 87% 0in /  0.0mm
05:14 72.1 °F /  22.3 °C 68.2 °F /  20.1 °C 29.9in /  1011.7hPa SO 2.4mph /  3.9km/h 5mph /  8km/h 87% 0in /  0.0mm
05:19 72.1 °F /  22.3 °C 68.2 °F /  20.1 °C 29.9in /  1011.8hPa SO 2.5mph /  4.1km/h 6.2mph /  10km/h 87% 0in /  0.0mm
05:24 72.1 °F /  22.3 °C 68 °F /  20 °C 29.9in /  1011.8hPa SO 2.9mph /  4.7km/h 6mph /  9.7km/h 86.6% 0in /  0.0mm
05:29 72.1 °F /  22.3 °C 67.6 °F /  19.8 °C 29.9in /  1011.8hPa OSO 2.9mph /  4.7km/h 6.2mph /  10km/h 86% 0in /  0.0mm
05:34 72.1 °F /  22.3 °C 67.6 °F /  19.8 °C 29.9in /  1011.8hPa ONO 3.1mph /  5km/h 6mph /  9.7km/h 86% 0in /  0.0mm
05:39 72.1 °F /  22.3 °C 67.6 °F /  19.8 °C 29.9in /  1011.6hPa ONO 2.9mph /  4.6km/h 6mph /  9.7km/h 86% 0in /  0.0mm
05:44 72.1 °F /  22.3 °C 67.6 °F /  19.8 °C 29.9in /  1011.6hPa OSO 2mph /  3.2km/h 6.2mph /  10km/h 86% 0in /  0.0mm
05:49 72.1 °F /  22.3 °C 67.6 °F /  19.8 °C 29.9in /  1011.7hPa SO 2.3mph /  3.7km/h 6mph /  9.7km/h 86% 0in /  0.0mm
05:54 72.1 °F /  22.3 °C 67.6 °F /  19.8 °C 29.9in /  1011.7hPa OSO 3.1mph /  5km/h 5.8mph /  9.3km/h 86% 0in /  0.0mm
05:59 72.3 °F /  22.4 °C 67.8 °F /  19.9 °C 29.9in /  1011.7hPa OSO 3mph /  4.9km/h 6mph /  9.7km/h 86% 0in /  0.0mm
06:04 72.3 °F /  22.4 °C 67.8 °F /  19.9 °C 29.9in /  1011.7hPa OSO 2.9mph /  4.7km/h 6mph /  9.7km/h 86% 0in /  0.0mm
06:09 72.3 °F /  22.4 °C 67.8 °F /  19.9 °C 29.9in /  1011.5hPa OSO 2.9mph /  4.7km/h 6mph /  9.7km/h 86% 0in /  0.0mm
06:14 72.3 °F /  22.4 °C 67.8 °F /  19.9 °C 29.9in /  1011.5hPa OSO 2.9mph /  4.7km/h 7.6mph /  12.2km/h 86% 0in /  0.0mm
06:19 72.3 °F /  22.4 °C 67.6 °F /  19.8 °C 29.9in /  1011.5hPa SO 2.9mph /  4.7km/h 8.1mph /  13km/h 85.4% 0in /  0.0mm
06:24 72.3 °F /  22.4 °C 67.6 °F /  19.8 °C 29.9in /  1011.5hPa OSO 3.1mph /  5km/h 8mph /  12.9km/h 85% 0in /  0.0mm
06:29 72.3 °F /  22.4 °C 67.6 °F /  19.8 °C 29.9in /  1011.5hPa OSO 3mph /  4.9km/h 6mph /  9.7km/h 85% 0in /  0.0mm
06:34 72.3 °F /  22.4 °C 67.6 °F /  19.8 °C 29.9in /  1011.5hPa SO 2.9mph /  4.7km/h 5mph /  8km/h 85% 0in /  0.0mm
06:39 72.3 °F /  22.4 °C 67.6 °F /  19.8 °C 29.9in /  1011.4hPa SSO 2.9mph /  4.7km/h 9.2mph /  14.8km/h 85% 0in /  0.0mm
06:44 72.1 °F /  22.3 °C 67.5 °F /  19.7 °C 29.9in /  1011.4hPa SO 3.1mph /  5km/h 9mph /  14.5km/h 85% 0in /  0.0mm
06:49 72.1 °F /  22.3 °C 67.5 °F /  19.7 °C 29.9in /  1011.4hPa SO 3.2mph /  5.2km/h 7mph /  11.3km/h 85% 0in /  0.0mm
06:54 72.1 °F /  22.3 °C 67.5 °F /  19.7 °C 29.9in /  1011.4hPa OSO 3.6mph /  5.8km/h 7mph /  11.3km/h 85% 0in /  0.0mm
06:59 72.1 °F /  22.3 °C 67.5 °F /  19.7 °C 29.9in /  1011.4hPa OSO 3.6mph /  5.8km/h 6.2mph /  10km/h 85% 0in /  0.0mm
07:04 72.1 °F /  22.3 °C 67.5 °F /  19.7 °C 29.9in /  1011.4hPa SO 3.6mph /  5.8km/h 6.9mph /  11.1km/h 85% 0in /  0.0mm
07:09 72.1 °F /  22.3 °C 67.3 °F /  19.6 °C 29.9in /  1011.2hPa SO 3.7mph /  6km/h 7mph /  11.3km/h 85% 0in /  0.0mm
07:14 72 °F /  22.2 °C 67.3 °F /  19.6 °C 29.9in /  1011.2hPa Sur 4mph /  6.5km/h 6.9mph /  11.1km/h 85% 0in /  0.0mm
07:19 72 °F /  22.2 °C 67.1 °F /  19.5 °C 29.9in /  1011.3hPa SSO 4.1mph /  6.6km/h 9.2mph /  14.8km/h 85% 0in /  0.0mm
07:24 71.8 °F /  22.1 °C 66.9 °F /  19.4 °C 29.9in /  1011.3hPa SO 4.3mph /  6.9km/h 9mph /  14.5km/h 85% 0in /  0.0mm
07:29 71.8 °F /  22.1 °C 66.9 °F /  19.4 °C 29.9in /  1011.3hPa OSO 4.3mph /  6.9km/h 8.1mph /  13km/h 85% 0in /  0.0mm
07:34 71.6 °F /  22 °C 66.9 °F /  19.4 °C 29.9in /  1011.3hPa Oeste 4.3mph /  6.9km/h 8mph /  12.9km/h 85% 0in /  0.0mm
07:39 71.6 °F /  22 °C 67.1 °F /  19.5 °C 29.9in /  1011.3hPa ONO 4.1mph /  6.6km/h 6mph /  9.7km/h 85.8% 0in /  0.0mm
07:44 71.6 °F /  22 °C 67.1 °F /  19.5 °C 29.9in /  1011.3hPa Oeste 3.6mph /  5.8km/h 7.4mph /  11.9km/h 86% 0in /  0.0mm
07:49 71.6 °F /  22 °C 67.3 °F /  19.6 °C 29.9in /  1011.4hPa SO 3.5mph /  5.6km/h 7mph /  11.3km/h 86% 0in /  0.0mm
07:54 71.4 °F /  21.9 °C 67.1 °F /  19.5 °C 29.9in /  1011.4hPa SSO 3.1mph /  5km/h 7mph /  11.3km/h 86% 0in /  0.0mm
07:59 71.4 °F /  21.9 °C 66.9 °F /  19.4 °C 29.9in /  1011.4hPa OSO 3.4mph /  5.5km/h 8.1mph /  13km/h 86% 0in /  0.0mm
08:04 71.4 °F /  21.9 °C 66.9 °F /  19.4 °C 29.9in /  1011.4hPa SO 4.3mph /  6.9km/h 8.5mph /  13.7km/h 85.9% 0in /  0.0mm
08:09 71.4 °F /  21.9 °C 66.9 °F /  19.4 °C 29.9in /  1011.3hPa SO 4.3mph /  6.9km/h 9mph /  14.5km/h 85.7% 0in /  0.0mm
08:14 71.4 °F /  21.9 °C 66.9 °F /  19.4 °C 29.9in /  1011.3hPa Oeste 4.3mph /  6.9km/h 7mph /  11.3km/h 86% 0in /  0.0mm
08:19 71.4 °F /  21.9 °C 66.9 °F /  19.4 °C 29.9in /  1011.3hPa SO 4.2mph /  6.7km/h 7mph /  11.3km/h 86% 0in /  0.0mm
08:24 71.2 °F /  21.8 °C 66.9 °F /  19.4 °C 29.9in /  1011.2hPa SSO 3.6mph /  5.8km/h 6.9mph /  11.1km/h 86% 0in /  0.0mm
08:29 71.2 °F /  21.8 °C 66.9 °F /  19.4 °C 29.9in /  1011.2hPa SSO 3.8mph /  6.1km/h 9.7mph /  15.6km/h 86% 0in /  0.0mm
08:34 71.2 °F /  21.8 °C 66.7 °F /  19.3 °C 29.9in /  1011.3hPa SSO 4.3mph /  6.9km/h 10mph /  16.1km/h 86% 0in /  0.0mm
08:39 71.2 °F /  21.8 °C 66.7 °F /  19.3 °C 29.9in /  1011.3hPa SO 4.4mph /  7.1km/h 7.4mph /  11.9km/h 86% 0in /  0.0mm
08:44 71.2 °F /  21.8 °C 66.7 °F /  19.3 °C 29.9in /  1011.3hPa OSO 4.7mph /  7.6km/h 7.4mph /  11.9km/h 86% 0in /  0.0mm
08:49 71.2 °F /  21.8 °C 66.6 °F /  19.2 °C 29.9in /  1011.3hPa SO 4.5mph /  7.3km/h 8.1mph /  13km/h 85.1% 0in /  0.0mm
08:54 71.1 °F /  21.7 °C 66.2 °F /  19 °C 29.9in /  1011.3hPa SSO 4mph /  6.5km/h 9.7mph /  15.6km/h 85% 0in /  0.0mm
08:59 70.9 °F /  21.6 °C 66.6 °F /  19.2 °C 29.9in /  1011.3hPa SO 4.3mph /  7km/h 10mph /  16.1km/h 86% 0in /  0.0mm
09:04 70.9 °F /  21.6 °C 66.4 °F /  19.1 °C 29.9in /  1011.3hPa OSO 5.2mph /  8.4km/h 8.5mph /  13.7km/h 86% 0in /  0.0mm
09:09 70.7 °F /  21.5 °C 66.2 °F /  19 °C 29.9in /  1011.2hPa SO 5.2mph /  8.4km/h 9mph /  14.5km/h 86% 0in /  0.0mm
09:14 70.9 °F /  21.6 °C 66.4 °F /  19.1 °C 29.9in /  1011.2hPa OSO 5.2mph /  8.4km/h 8.1mph /  13km/h 86% 0in /  0.0mm
09:19 70.9 °F /  21.6 °C 66.6 °F /  19.2 °C 29.9in /  1011.3hPa OSO 4.9mph /  7.9km/h 8mph /  12.9km/h 86% 0in /  0.0mm
09:24 71.1 °F /  21.7 °C 66.6 °F /  19.2 °C 29.9in /  1011.3hPa SO 4mph /  6.5km/h 7mph /  11.3km/h 86% 0in /  0.0mm
09:29 71.2 °F /  21.8 °C 66.6 °F /  19.2 °C 29.9in /  1011.3hPa OSO 3.9mph /  6.3km/h 7.4mph /  11.9km/h 85.5% 0in /  0.0mm
09:34 71.2 °F /  21.8 °C 66.6 °F /  19.2 °C 29.9in /  1011.3hPa OSO 3.6mph /  5.8km/h 7mph /  11.3km/h 85% 0in /  0.0mm
09:39 71.2 °F /  21.8 °C 66.6 °F /  19.2 °C 29.9in /  1011.3hPa SO 3.6mph /  5.8km/h 6mph /  9.7km/h 85% 0in /  0.0mm
09:44 71.2 °F /  21.8 °C 66.6 °F /  19.2 °C 29.9in /  1011.3hPa SO 3.6mph /  5.8km/h 6.9mph /  11.1km/h 85% 0in /  0.0mm
09:49 71.4 °F /  21.9 °C 66.6 °F /  19.2 °C 29.9in /  1011.4hPa OSO 3.8mph /  6.1km/h 7mph /  11.3km/h 85% 0in /  0.0mm
09:54 71.4 °F /  21.9 °C 66.7 °F /  19.3 °C 29.9in /  1011.4hPa SO 4.3mph /  6.9km/h 9.2mph /  14.8km/h 84.7% 0in /  0.0mm
09:59 71.4 °F /  21.9 °C 66.4 °F /  19.1 °C 29.9in /  1011.4hPa SO 4.3mph /  6.9km/h 9.2mph /  14.8km/h 84% 0in /  0.0mm
10:04 71.4 °F /  21.9 °C 66.4 °F /  19.1 °C 29.9in /  1011.7hPa OSO 4.3mph /  6.9km/h 9mph /  14.5km/h 84.4% 0in /  0.0mm
10:09 71.4 °F /  21.9 °C 66.4 °F /  19.1 °C 29.9in /  1011.7hPa OSO 4.3mph /  6.9km/h 9.2mph /  14.8km/h 84% 0in /  0.0mm
10:14 71.6 °F /  22 °C 66.7 °F /  19.3 °C 29.9in /  1011.7hPa SO 4.3mph /  6.9km/h 9mph /  14.5km/h 84.8% 0in /  0.0mm
10:19 72 °F /  22.2 °C 66.9 °F /  19.4 °C 29.9in /  1011.9hPa SO 4.4mph /  7.1km/h 8.1mph /  13km/h 84% 0in /  0.0mm
10:24 72 °F /  22.2 °C 66.6 °F /  19.2 °C 29.9in /  1011.9hPa SO 4.7mph /  7.6km/h 8.7mph /  14km/h 83.1% 0in /  0.0mm
10:29 72 °F /  22.2 °C 66.6 °F /  19.2 °C 29.9in /  1011.9hPa OSO 4.8mph /  7.8km/h 9.2mph /  14.8km/h 83% 0in /  0.0mm
10:34 72 °F /  22.2 °C 66.6 °F /  19.2 °C 29.9in /  1011.9hPa OSO 5.4mph /  8.7km/h 9mph /  14.5km/h 83% 0in /  0.0mm
10:39 72 °F /  22.2 °C 66.6 °F /  19.2 °C 29.9in /  1011.9hPa SSO 5.2mph /  8.4km/h 8.5mph /  13.7km/h 83% 0in /  0.0mm
10:44 72.1 °F /  22.3 °C 66.7 °F /  19.3 °C 29.9in /  1011.9hPa SO 4.7mph /  7.6km/h 9mph /  14.5km/h 83% 0in /  0.0mm
10:49 72.3 °F /  22.4 °C 66.6 °F /  19.2 °C 29.9in /  1012.0hPa SSO 4.6mph /  7.4km/h 9.2mph /  14.8km/h 82.4% 0in /  0.0mm
10:54 72.3 °F /  22.4 °C 66.6 °F /  19.2 °C 29.9in /  1012.0hPa SSO 4.3mph /  6.9km/h 9.2mph /  14.8km/h 82% 0in /  0.0mm
10:59 72.5 °F /  22.5 °C 66.7 °F /  19.3 °C 29.9in /  1012.0hPa Sur 4.8mph /  7.7km/h 9.2mph /  14.8km/h 81.9% 0in /  0.0mm
11:04 72.7 °F /  22.6 °C 66.6 °F /  19.2 °C 29.9in /  1012.0hPa SSO 5.9mph /  9.5km/h 9mph /  14.5km/h 81% 0in /  0.0mm
11:09 72.9 °F /  22.7 °C 66.4 °F /  19.1 °C 29.9in /  1011.9hPa SSO 5.8mph /  9.3km/h 9.2mph /  14.8km/h 80.4% 0in /  0.0mm
11:14 72.9 °F /  22.7 °C 66.4 °F /  19.1 °C 29.9in /  1011.9hPa SSO 5.4mph /  8.7km/h 9mph /  14.5km/h 80% 0in /  0.0mm
11:19 73 °F /  22.8 °C 66.2 °F /  19 °C 29.9in /  1011.9hPa SO 5.2mph /  8.4km/h 8mph /  12.9km/h 78.9% 0in /  0.0mm
11:24 73.6 °F /  23.1 °C 66.2 °F /  19 °C 29.9in /  1011.9hPa SO 4.7mph /  7.6km/h 9.2mph /  14.8km/h 77.8% 0in /  0.0mm
11:29 73.9 °F /  23.3 °C 66.2 °F /  19 °C 29.9in /  1011.9hPa SO 4.7mph /  7.6km/h 9mph /  14.5km/h 76.6% 0in /  0.0mm
11:34 74.5 °F /  23.6 °C 65.7 °F /  18.7 °C 29.9in /  1011.9hPa SSO 4.7mph /  7.6km/h 10.4mph /  16.7km/h 74.2% 0in /  0.0mm
11:39 74.8 °F /  23.8 °C 65.1 °F /  18.4 °C 29.9in /  1011.7hPa SSO 5.1mph /  8.2km/h 10mph /  16.1km/h 72% 0in /  0.0mm
11:44 74.8 °F /  23.8 °C 64.6 °F /  18.1 °C 29.9in /  1011.7hPa SSO 6.2mph /  10km/h 9.7mph /  15.6km/h 70.3% 0in /  0.0mm
11:49 75.4 °F /  24.1 °C 64.6 °F /  18.1 °C 29.9in /  1011.7hPa SO 6.2mph /  9.9km/h 10mph /  16.1km/h 69.3% 0in /  0.0mm
11:54 75.6 °F /  24.2 °C 64.8 °F /  18.2 °C 29.9in /  1011.5hPa SO 5.9mph /  9.5km/h 9mph /  14.5km/h 69% 0in /  0.0mm
11:59 76.1 °F /  24.5 °C 64.4 °F /  18 °C 29.9in /  1011.5hPa OSO 5.3mph /  8.6km/h 8.5mph /  13.7km/h 67% 0in /  0.0mm
12:04 76.6 °F /  24.8 °C 63.9 °F /  17.7 °C 29.9in /  1011.5hPa SO 4mph /  6.5km/h 9mph /  14.5km/h 64.9% 0in /  0.0mm
12:09 77 °F /  25 °C 63.9 °F /  17.7 °C 29.9in /  1011.4hPa Oeste 4.2mph /  6.8km/h 8.1mph /  13km/h 64.2% 0in /  0.0mm
12:14 77.4 °F /  25.2 °C 63.9 °F /  17.7 °C 29.9in /  1011.4hPa OSO 4.7mph /  7.6km/h 12.7mph /  20.4km/h 63.2% 0in /  0.0mm
12:19 77.5 °F /  25.3 °C 63.3 °F /  17.4 °C 29.9in /  1011.4hPa OSO 5mph /  8km/h 13mph /  20.9km/h 61.8% 0in /  0.0mm
12:24 77.9 °F /  25.5 °C 63.7 °F /  17.6 °C 29.9in /  1011.2hPa OSO 5.9mph /  9.5km/h 12mph /  19.3km/h 62% 0in /  0.0mm
12:29 78.4 °F /  25.8 °C 64 °F /  17.8 °C 29.9in /  1011.2hPa SO 5.4mph /  8.7km/h 8.1mph /  13km/h 61.2% 0in /  0.0mm
12:34 79.2 °F /  26.2 °C 63.3 °F /  17.4 °C 29.9in /  1011.2hPa SSO 4mph /  6.5km/h 10.7mph /  17.2km/h 58.3% 0in /  0.0mm
12:39 79.3 °F /  26.3 °C 62.8 °F /  17.1 °C 29.9in /  1011.0hPa SSO 4.3mph /  7km/h 11mph /  17.7km/h 57.1% 0in /  0.0mm
12:44 79.5 °F /  26.4 °C 63 °F /  17.2 °C 29.9in /  1011.0hPa SSO 5.4mph /  8.7km/h 11mph /  17.7km/h 56.9% 0in /  0.0mm
12:49 80.1 °F /  26.7 °C 62.2 °F /  16.8 °C 29.9in /  1011.0hPa SSO 5.4mph /  8.7km/h 9mph /  14.5km/h 54.6% 0in /  0.0mm
12:54 80.4 °F /  26.9 °C 61.7 °F /  16.5 °C 29.9in /  1010.8hPa SSO 5.4mph /  8.7km/h 9.2mph /  14.8km/h 52.8% 0in /  0.0mm
12:59 81 °F /  27.2 °C 61.3 °F /  16.3 °C 29.9in /  1010.8hPa Sur 5.4mph /  8.7km/h 9.2mph /  14.8km/h 51.3% 0in /  0.0mm
13:04 81.7 °F /  27.6 °C 61.5 °F /  16.4 °C 29.9in /  1010.8hPa SSO 5.4mph /  8.7km/h 10mph /  16.1km/h 50.5% 0in /  0.0mm
13:09 82 °F /  27.8 °C 60.6 °F /  15.9 °C 29.8in /  1010.6hPa SSO 5.6mph /  9km/h 10.4mph /  16.7km/h 48.5% 0in /  0.0mm
13:14 82 °F /  27.8 °C 60.3 °F /  15.7 °C 29.8in /  1010.6hPa SO 6.2mph /  10km/h 10mph /  16.1km/h 47.6% 0in /  0.0mm
13:19 82.8 °F /  28.2 °C 60.4 °F /  15.8 °C 29.8in /  1010.6hPa SSO 6.2mph /  9.9km/h 9.7mph /  15.6km/h 47.2% 0in /  0.0mm
13:24 82.9 °F /  28.3 °C 60.1 °F /  15.6 °C 29.8in /  1010.2hPa SSO 5.9mph /  9.5km/h 10mph /  16.1km/h 45.9% 0in /  0.0mm
13:29 83.5 °F /  28.6 °C 60.3 °F /  15.7 °C 29.8in /  1010.2hPa SO 5.7mph /  9.2km/h 11.5mph /  18.5km/h 45.6% 0in /  0.0mm
13:34 83.8 °F /  28.8 °C 60.1 °F /  15.6 °C 29.8in /  1010.2hPa SO 5.2mph /  8.4km/h 12mph /  19.3km/h 44.8% 0in /  0.0mm
13:39 84.4 °F /  29.1 °C 59.7 °F /  15.4 °C 29.8in /  1010.0hPa SO 5.2mph /  8.4km/h 9.2mph /  14.8km/h 43.5% 0in /  0.0mm
13:44 84.7 °F /  29.3 °C 59.4 °F /  15.2 °C 29.8in /  1010.0hPa OSO 5.4mph /  8.7km/h 9.2mph /  14.8km/h 42.5% 0in /  0.0mm
13:49 85.1 °F /  29.5 °C 59.4 °F /  15.2 °C 29.8in /  1010.0hPa SO 5.2mph /  8.4km/h 9mph /  14.5km/h 42% 0in /  0.0mm
13:54 85.5 °F /  29.7 °C 58.8 °F /  14.9 °C 29.8in /  1009.8hPa SSO 4.7mph /  7.6km/h 10.4mph /  16.7km/h 40.7% 0in /  0.0mm
13:59 85.8 °F /  29.9 °C 58.8 °F /  14.9 °C 29.8in /  1009.8hPa SO 4.9mph /  7.9km/h 10mph /  16.1km/h 40.2% 0in /  0.0mm
14:04 86.4 °F /  30.2 °C 58.5 °F /  14.7 °C 29.8in /  1009.8hPa SSO 5.4mph /  8.7km/h 10.4mph /  16.7km/h 39.1% 0in /  0.0mm
14:09 86.5 °F /  30.3 °C 58.3 °F /  14.6 °C 29.8in /  1009.6hPa SSO 5.2mph /  8.4km/h 10mph /  16.1km/h 38.6% 0in /  0.0mm
14:14 86.9 °F /  30.5 °C 57.6 °F /  14.2 °C 29.8in /  1009.6hPa SSO 4.7mph /  7.6km/h 11.5mph /  18.5km/h 37.1% 0in /  0.0mm
14:19 86.9 °F /  30.5 °C 57.7 °F /  14.3 °C 29.8in /  1009.6hPa SSO 4.8mph /  7.8km/h 12mph /  19.3km/h 37.2% 0in /  0.0mm
14:24 87.3 °F /  30.7 °C 57.6 °F /  14.2 °C 29.8in /  1009.3hPa SSO 5.4mph /  8.7km/h 9.2mph /  14.8km/h 36.7% 0in /  0.0mm
14:29 87.4 °F /  30.8 °C 57.2 °F /  14 °C 29.8in /  1009.3hPa SSO 5.7mph /  9.1km/h 9.7mph /  15.6km/h 36% 0in /  0.0mm
14:34 87.8 °F /  31 °C 57.2 °F /  14 °C 29.8in /  1009.3hPa SSO 6.4mph /  10.3km/h 12.7mph /  20.4km/h 35.4% 0in /  0.0mm
14:39 88 °F /  31.1 °C 56.8 °F /  13.8 °C 29.8in /  1009.1hPa SSO 6.3mph /  10.2km/h 13mph /  20.9km/h 35% 0in /  0.0mm
14:44 88.2 °F /  31.2 °C 56.7 °F /  13.7 °C 29.8in /  1009.1hPa SSO 6.2mph /  10km/h 11.5mph /  18.5km/h 34.4% 0in /  0.0mm
14:49 88.3 °F /  31.3 °C 56.5 °F /  13.6 °C 29.8in /  1009.1hPa SSO 6mph /  9.7km/h 12mph /  19.3km/h 34% 0in /  0.0mm
14:54 88.5 °F /  31.4 °C 56.5 °F /  13.6 °C 29.8in /  1008.9hPa Sur 5.4mph /  8.7km/h 10.7mph /  17.2km/h 33.9% 0in /  0.0mm
14:59 88.7 °F /  31.5 °C 56.1 °F /  13.4 °C 29.8in /  1008.9hPa SSE 5.7mph /  9.2km/h 11mph /  17.7km/h 33.2% 0in /  0.0mm
15:04 89.1 °F /  31.7 °C 56.3 °F /  13.5 °C 29.8in /  1008.9hPa SSO 6.4mph /  10.3km/h 10mph /  16.1km/h 33.2% 0in /  0.0mm
15:09 89.4 °F /  31.9 °C 55.9 °F /  13.3 °C 29.8in /  1008.5hPa SSO 6.2mph /  9.9km/h 11.5mph /  18.5km/h 32.4% 0in /  0.0mm
15:14 89.4 °F /  31.9 °C 55.8 °F /  13.2 °C 29.8in /  1008.5hPa SSO 5.4mph /  8.7km/h 12mph /  19.3km/h 32% 0in /  0.0mm
15:19 89.6 °F /  32 °C 55.9 °F /  13.3 °C 29.8in /  1008.5hPa SO 5.2mph /  8.4km/h 10mph /  16.1km/h 32% 0in /  0.0mm
15:24 90 °F /  32.2 °C 55.4 °F /  13 °C 29.8in /  1008.5hPa Oeste 4.7mph /  7.6km/h 10.4mph /  16.7km/h 31.2% 0in /  0.0mm
15:29 90.1 °F /  32.3 °C 55.4 °F /  13 °C 29.8in /  1008.5hPa SSO 5mph /  8.1km/h 10mph /  16.1km/h 31% 0in /  0.0mm
15:34 90.5 °F /  32.5 °C 54 °F /  12.2 °C 29.8in /  1008.5hPa Oeste 5.9mph /  9.5km/h 10.4mph /  16.7km/h 29.2% 0in /  0.0mm
15:39 90.9 °F /  32.7 °C 53.6 °F /  12 °C 29.8in /  1008.3hPa OSO 5.8mph /  9.3km/h 10.4mph /  16.7km/h 28.4% 0in /  0.0mm
15:44 91.2 °F /  32.9 °C 53.8 °F /  12.1 °C 29.8in /  1008.3hPa SO 5.4mph /  8.7km/h 10.4mph /  16.7km/h 28.2% 0in /  0.0mm
15:49 91.6 °F /  33.1 °C 53.6 °F /  12 °C 29.8in /  1008.3hPa OSO 5.4mph /  8.7km/h 10.4mph /  16.7km/h 27.8% 0in /  0.0mm
15:54 91.8 °F /  33.2 °C 53.2 °F /  11.8 °C 29.8in /  1008.1hPa SO 5.4mph /  8.7km/h 14.5mph /  23.3km/h 27.1% 0in /  0.0mm
15:59 91.9 °F /  33.3 °C 52.7 °F /  11.5 °C 29.8in /  1008.1hPa Oeste 5.7mph /  9.2km/h 15mph /  24.1km/h 26.6% 0in /  0.0mm
16:04 91.9 °F /  33.3 °C 52.3 °F /  11.3 °C 29.8in /  1008.1hPa SO 6.4mph /  10.3km/h 15mph /  24.1km/h 26.1% 0in /  0.0mm
16:09 92.3 °F /  33.5 °C 52.9 °F /  11.6 °C 29.8in /  1007.8hPa SO 5.8mph /  9.4km/h 11.2mph /  18km/h 26.3% 0in /  0.0mm
16:14 92.5 °F /  33.6 °C 53.2 °F /  11.8 °C 29.8in /  1007.8hPa ONO 4.3mph /  6.9km/h 12mph /  19.3km/h 26.6% 0in /  0.0mm
16:19 92.7 °F /  33.7 °C 52.3 °F /  11.3 °C 29.8in /  1007.8hPa SO 4.3mph /  6.9km/h 10mph /  16.1km/h 25.7% 0in /  0.0mm
16:24 92.8 °F /  33.8 °C 52 °F /  11.1 °C 29.8in /  1007.8hPa SSO 4.3mph /  6.9km/h 11.4mph /  18.3km/h 25.1% 0in /  0.0mm
16:29 92.7 °F /  33.7 °C 52 °F /  11.1 °C 29.8in /  1007.8hPa SSO 4.6mph /  7.4km/h 12mph /  19.3km/h 25.4% 0in /  0.0mm
16:34 92.5 °F /  33.6 °C 52.3 °F /  11.3 °C 29.8in /  1007.8hPa Sur 5.4mph /  8.7km/h 10mph /  16.1km/h 25.8% 0in /  0.0mm
16:39 92.5 °F /  33.6 °C 52.3 °F /  11.3 °C 29.8in /  1007.6hPa Sur 5.3mph /  8.6km/h 8.5mph /  13.7km/h 25.7% 0in /  0.0mm
16:44 92.8 °F /  33.8 °C 52.3 °F /  11.3 °C 29.8in /  1007.6hPa SSO 5.2mph /  8.4km/h 11.5mph /  18.5km/h 25.6% 0in /  0.0mm
16:49 92.8 °F /  33.8 °C 52.2 °F /  11.2 °C 29.8in /  1007.6hPa SSO 5.4mph /  8.7km/h 12mph /  19.3km/h 25.2% 0in /  0.0mm
16:54 92.8 °F /  33.8 °C 52.2 °F /  11.2 °C 29.8in /  1007.4hPa SO 6.2mph /  10km/h 12.7mph /  20.4km/h 25.3% 0in /  0.0mm
16:59 92.8 °F /  33.8 °C 52.3 °F /  11.3 °C 29.8in /  1007.4hPa SSO 6.2mph /  10km/h 13mph /  20.9km/h 25.5% 0in /  0.0mm
17:04 92.8 °F /  33.8 °C 52.5 °F /  11.4 °C 29.8in /  1007.4hPa SSO 6.2mph /  10km/h 12mph /  19.3km/h 25.6% 0in /  0.0mm
17:09 92.8 °F /  33.8 °C 51.4 °F /  10.8 °C 29.8in /  1007.4hPa SO 6.3mph /  10.1km/h 13.8mph /  22.2km/h 24.7% 0in /  0.0mm
17:14 93 °F /  33.9 °C 51.4 °F /  10.8 °C 29.8in /  1007.4hPa SSO 6.4mph /  10.3km/h 14mph /  22.5km/h 24.5% 0in /  0.0mm
17:19 92.8 °F /  33.8 °C 50.7 °F /  10.4 °C 29.8in /  1007.4hPa SSO 6.5mph /  10.5km/h 12mph /  19.3km/h 24% 0in /  0.0mm
17:24 92.8 °F /  33.8 °C 50.5 °F /  10.3 °C 29.7in /  1007.2hPa SSO 6.9mph /  11.1km/h 12mph /  19.3km/h 23.9% 0in /  0.0mm
17:29 93 °F /  33.9 °C 50.2 °F /  10.1 °C 29.7in /  1007.2hPa SSO 6.7mph /  10.8km/h 12mph /  19.3km/h 23.3% 0in /  0.0mm
17:34 93.2 °F /  34 °C 51.1 °F /  10.6 °C 29.7in /  1007.2hPa SSO 6.2mph /  10km/h 9mph /  14.5km/h 24% 0in /  0.0mm
17:39 93.4 °F /  34.1 °C 51.3 °F /  10.7 °C 29.7in /  1007.2hPa SSO 6mph /  9.6km/h 9.2mph /  14.8km/h 24% 0in /  0.0mm
17:44 93.4 °F /  34.1 °C 50.4 °F /  10.2 °C 29.7in /  1007.2hPa SSO 5.2mph /  8.4km/h 9mph /  14.5km/h 23.3% 0in /  0.0mm
17:49 92.8 °F /  33.8 °C 50.2 °F /  10.1 °C 29.7in /  1007.2hPa SSO 5.2mph /  8.4km/h 9mph /  14.5km/h 23.4% 0in /  0.0mm
17:54 92.7 °F /  33.7 °C 50.5 °F /  10.3 °C 29.7in /  1007.2hPa SSO 5.4mph /  8.7km/h 8mph /  12.9km/h 24% 0in /  0.0mm
17:59 92.5 °F /  33.6 °C 50.2 °F /  10.1 °C 29.7in /  1007.2hPa Sur 5.3mph /  8.6km/h 11.5mph /  18.5km/h 23.8% 0in /  0.0mm
18:04 92.1 °F /  33.4 °C 49.3 °F /  9.6 °C 29.7in /  1007.2hPa SO 5.2mph /  8.4km/h 12mph /  19.3km/h 23.3% 0in /  0.0mm
18:09 92.3 °F /  33.5 °C 49.5 °F /  9.7 °C 29.7in /  1007.2hPa SSO 5.2mph /  8.4km/h 9mph /  14.5km/h 23.3% 0in /  0.0mm
18:14 92.7 °F /  33.7 °C 50.4 °F /  10.2 °C 29.7in /  1007.2hPa OSO 5.4mph /  8.7km/h 9mph /  14.5km/h 23.9% 0in /  0.0mm
18:19 92.8 °F /  33.8 °C 50.5 °F /  10.3 °C 29.7in /  1007.3hPa OSO 5mph /  8.1km/h 8.1mph /  13km/h 23.9% 0in /  0.0mm
18:24 93 °F /  33.9 °C 49.5 °F /  9.7 °C 29.7in /  1007.3hPa OSO 4mph /  6.5km/h 9.2mph /  14.8km/h 22.9% 0in /  0.0mm
18:29 92.8 °F /  33.8 °C 50 °F /  10 °C 29.7in /  1007.3hPa ONO 4.3mph /  7km/h 9mph /  14.5km/h 23.4% 0in /  0.0mm
18:34 92.7 °F /  33.7 °C 49.6 °F /  9.8 °C 29.8in /  1007.4hPa ONO 5.2mph /  8.4km/h 11.8mph /  19km/h 23.2% 0in /  0.0mm
18:39 92.1 °F /  33.4 °C 49.5 °F /  9.7 °C 29.8in /  1007.4hPa ONO 5.2mph /  8.4km/h 12mph /  19.3km/h 23.3% 0in /  0.0mm
18:44 91.9 °F /  33.3 °C 50 °F /  10 °C 29.8in /  1007.4hPa ONO 5.4mph /  8.7km/h 12.7mph /  20.4km/h 23.9% 0in /  0.0mm
18:49 91.8 °F /  33.2 °C 48.9 °F /  9.4 °C 29.8in /  1007.5hPa ONO 5.6mph /  9km/h 13mph /  20.9km/h 23.3% 0in /  0.0mm
18:54 91.4 °F /  33 °C 49.5 °F /  9.7 °C 29.8in /  1007.5hPa ONO 6.2mph /  10km/h 12mph /  19.3km/h 23.9% 0in /  0.0mm
18:59 91 °F /  32.8 °C 49.1 °F /  9.5 °C 29.8in /  1007.5hPa ONO 6.2mph /  10km/h 12.7mph /  20.4km/h 23.9% 0in /  0.0mm
19:04 90.9 °F /  32.7 °C 51.8 °F /  11 °C 29.8in /  1007.8hPa OSO 6.2mph /  10km/h 13mph /  20.9km/h 26.7% 0in /  0.0mm
19:09 90.1 °F /  32.3 °C 59.5 °F /  15.3 °C 29.8in /  1007.8hPa SO 6.1mph /  9.8km/h 12mph /  19.3km/h 36.1% 0in /  0.0mm
19:14 89.1 °F /  31.7 °C 60.8 °F /  16 °C 29.8in /  1007.8hPa SO 5.9mph /  9.5km/h 12mph /  19.3km/h 38.9% 0in /  0.0mm
19:19 88.5 °F /  31.4 °C 60.8 °F /  16 °C 29.8in /  1008.0hPa SSO 5.8mph /  9.3km/h 9.2mph /  14.8km/h 39.7% 0in /  0.0mm
19:24 88 °F /  31.1 °C 60.6 °F /  15.9 °C 29.8in /  1008.0hPa SSO 5.4mph /  8.7km/h 10.7mph /  17.2km/h 40% 0in /  0.0mm
19:29 87.4 °F /  30.8 °C 60.8 °F /  16 °C 29.8in /  1008.0hPa SSO 5.7mph /  9.1km/h 11mph /  17.7km/h 40.9% 0in /  0.0mm
19:34 87.1 °F /  30.6 °C 61.2 °F /  16.2 °C 29.8in /  1008.0hPa SSO 6.4mph /  10.3km/h 11mph /  17.7km/h 42.1% 0in /  0.0mm
19:39 86.7 °F /  30.4 °C 61.5 °F /  16.4 °C 29.8in /  1007.9hPa SSO 6.2mph /  9.9km/h 10mph /  16.1km/h 43% 0in /  0.0mm
19:44 86.4 °F /  30.2 °C 60.3 °F /  15.7 °C 29.8in /  1007.9hPa SSO 5.4mph /  8.7km/h 9mph /  14.5km/h 41.5% 0in /  0.0mm
19:49 86.4 °F /  30.2 °C 59.2 °F /  15.1 °C 29.8in /  1008.1hPa SSO 5.4mph /  8.7km/h 9.2mph /  14.8km/h 40.2% 0in /  0.0mm
19:54 86.2 °F /  30.1 °C 58.8 °F /  14.9 °C 29.8in /  1008.1hPa SSO 5.4mph /  8.7km/h 10.7mph /  17.2km/h 39.7% 0in /  0.0mm
19:59 86 °F /  30 °C 58.5 °F /  14.7 °C 29.8in /  1008.1hPa Sur 5.5mph /  8.9km/h 11mph /  17.7km/h 39.4% 0in /  0.0mm
20:04 85.6 °F /  29.8 °C 58.5 °F /  14.7 °C 29.8in /  1008.1hPa Sur 5.9mph /  9.5km/h 10.7mph /  17.2km/h 39.8% 0in /  0.0mm
20:09 85.5 °F /  29.7 °C 59 °F /  15 °C 29.8in /  1008.1hPa Sur 6mph /  9.7km/h 11mph /  17.7km/h 40.8% 0in /  0.0mm
20:14 85.1 °F /  29.5 °C 57.6 °F /  14.2 °C 29.8in /  1008.1hPa Sur 6.4mph /  10.3km/h 10mph /  16.1km/h 39.4% 0in /  0.0mm
20:19 84.9 °F /  29.4 °C 56.1 °F /  13.4 °C 29.8in /  1008.2hPa Sur 6.3mph /  10.2km/h 10.4mph /  16.7km/h 37.6% 0in /  0.0mm
20:24 84.7 °F /  29.3 °C 57.7 °F /  14.3 °C 29.8in /  1008.2hPa Sur 6.2mph /  10km/h 9.7mph /  15.6km/h 39.8% 0in /  0.0mm
20:29 84.4 °F /  29.1 °C 58.3 °F /  14.6 °C 29.8in /  1008.2hPa Sur 6.1mph /  9.8km/h 10mph /  16.1km/h 41.2% 0in /  0.0mm
20:34 83.8 °F /  28.8 °C 58.5 °F /  14.7 °C 29.8in /  1008.3hPa Sur 5.9mph /  9.5km/h 9.2mph /  14.8km/h 42.2% 0in /  0.0mm
20:39 83.7 °F /  28.7 °C 59.2 °F /  15.1 °C 29.8in /  1008.3hPa Sur 5.9mph /  9.5km/h 9.2mph /  14.8km/h 43.7% 0in /  0.0mm
20:44 83.1 °F /  28.4 °C 60.1 °F /  15.6 °C 29.8in /  1008.3hPa SSO 5.9mph /  9.5km/h 11.5mph /  18.5km/h 45.8% 0in /  0.0mm
20:49 82.8 °F /  28.2 °C 60.8 °F /  16 °C 29.8in /  1008.3hPa SSO 6.2mph /  9.9km/h 12mph /  19.3km/h 47.5% 0in /  0.0mm
20:54 82.6 °F /  28.1 °C 60.8 °F /  16 °C 29.8in /  1008.3hPa SSO 6.9mph /  11.1km/h 10mph /  16.1km/h 47.9% 0in /  0.0mm
20:59 82.2 °F /  27.9 °C 59.7 °F /  15.4 °C 29.8in /  1008.3hPa SSO 6.6mph /  10.6km/h 11.5mph /  18.5km/h 46.3% 0in /  0.0mm
21:04 82.4 °F /  28 °C 58.5 °F /  14.7 °C 29.8in /  1008.6hPa SSO 5.9mph /  9.5km/h 12mph /  19.3km/h 44.1% 0in /  0.0mm
21:09 82.6 °F /  28.1 °C 58.6 °F /  14.8 °C 29.8in /  1008.6hPa SSO 5.8mph /  9.3km/h 9.2mph /  14.8km/h 44.4% 0in /  0.0mm
21:14 82.4 °F /  28 °C 60.1 °F /  15.6 °C 29.8in /  1008.6hPa SSO 5.4mph /  8.7km/h 9.2mph /  14.8km/h 46.9% 0in /  0.0mm
21:19 82 °F /  27.8 °C 59.7 °F /  15.4 °C 29.8in /  1008.8hPa SSO 5.4mph /  8.7km/h 9.7mph /  15.6km/h 46.8% 0in /  0.0mm
21:24 81.9 °F /  27.7 °C 58.5 °F /  14.7 °C 29.8in /  1008.8hPa SSO 5.4mph /  8.7km/h 10mph /  16.1km/h 45.1% 0in /  0.0mm
21:29 82 °F /  27.8 °C 57.4 °F /  14.1 °C 29.8in /  1008.8hPa SSO 5.4mph /  8.7km/h 9.2mph /  14.8km/h 43.1% 0in /  0.0mm
21:34 82 °F /  27.8 °C 56.7 °F /  13.7 °C 29.8in /  1008.9hPa SO 5.4mph /  8.7km/h 8.7mph /  14km/h 42% 0in /  0.0mm
21:39 82 °F /  27.8 °C 56.5 °F /  13.6 °C 29.8in /  1008.9hPa Oeste 4.9mph /  7.9km/h 9.2mph /  14.8km/h 41.7% 0in /  0.0mm
21:44 81.9 °F /  27.7 °C 56.1 °F /  13.4 °C 29.8in /  1008.9hPa OSO 3.6mph /  5.8km/h 5.8mph /  9.3km/h 41.3% 0in /  0.0mm
21:49 81.7 °F /  27.6 °C 55.6 °F /  13.1 °C 29.8in /  1009.3hPa SO 3.5mph /  5.6km/h 6mph /  9.7km/h 40.8% 0in /  0.0mm
21:54 81.5 °F /  27.5 °C 54.7 °F /  12.6 °C 29.8in /  1009.3hPa OSO 3.1mph /  5km/h 6mph /  9.7km/h 39.9% 0in /  0.0mm
21:59 81.3 °F /  27.4 °C 54.3 °F /  12.4 °C 29.8in /  1009.3hPa OSO 3.1mph /  5km/h 7.6mph /  12.2km/h 39.4% 0in /  0.0mm
22:04 81.3 °F /  27.4 °C 54 °F /  12.2 °C 29.8in /  1009.5hPa OSO 3.1mph /  5km/h 8.1mph /  13km/h 38.9% 0in /  0.0mm
22:09 81.1 °F /  27.3 °C 53.6 °F /  12 °C 29.8in /  1009.5hPa SO 3.2mph /  5.2km/h 7mph /  11.3km/h 38.6% 0in /  0.0mm
22:14 81.1 °F /  27.3 °C 53.1 °F /  11.7 °C 29.8in /  1009.5hPa SO 3.6mph /  5.8km/h 5mph /  8km/h 38% 0in /  0.0mm
22:19 81.1 °F /  27.3 °C 52.7 °F /  11.5 °C 29.8in /  1009.7hPa SO 3.5mph /  5.6km/h 5.2mph /  8.4km/h 37.5% 0in /  0.0mm
22:24 81.1 °F /  27.3 °C 52.3 °F /  11.3 °C 29.8in /  1009.7hPa SO 3.1mph /  5km/h 5.2mph /  8.4km/h 36.9% 0in /  0.0mm
22:29 81.1 °F /  27.3 °C 53.2 °F /  11.8 °C 29.8in /  1009.7hPa SSO 2.9mph /  4.7km/h 5mph /  8km/h 38.1% 0in /  0.0mm
22:34 81.1 °F /  27.3 °C 55.9 °F /  13.3 °C 29.8in /  1010.0hPa Sur 2.4mph /  3.9km/h 4mph /  6.4km/h 42.2% 0in /  0.0mm
22:39 80.6 °F /  27 °C 55 °F /  12.8 °C 29.8in /  1010.0hPa SSO 2.4mph /  3.9km/h 5.9mph /  9.5km/h 41.5% 0in /  0.0mm
22:44 80.2 °F /  26.8 °C 53.1 °F /  11.7 °C 29.8in /  1010.0hPa SO 2.4mph /  3.9km/h 6mph /  9.7km/h 39% 0in /  0.0mm
22:49 80.1 °F /  26.7 °C 53.6 °F /  12 °C 29.8in /  1010.2hPa SSO 2.5mph /  4.1km/h 6mph /  9.7km/h 40.1% 0in /  0.0mm
22:54 79.9 °F /  26.6 °C 55 °F /  12.8 °C 29.8in /  1010.2hPa SSO 3.1mph /  5km/h 6.2mph /  10km/h 42.6% 0in /  0.0mm
22:59 79.3 °F /  26.3 °C 55 °F /  12.8 °C 29.8in /  1010.2hPa Sur 3.6mph /  5.8km/h 6.9mph /  11.1km/h 43.1% 0in /  0.0mm
23:04 79.2 °F /  26.2 °C 54.7 °F /  12.6 °C 29.8in /  1010.3hPa Sur 4.7mph /  7.6km/h 7mph /  11.3km/h 43% 0in /  0.0mm
23:09 79.2 °F /  26.2 °C 54.1 °F /  12.3 °C 29.8in /  1010.3hPa Sur 4.7mph /  7.6km/h 8.1mph /  13km/h 42.2% 0in /  0.0mm
23:14 79 °F /  26.1 °C 53.8 °F /  12.1 °C 29.8in /  1010.3hPa Sur 4.7mph /  7.6km/h 8.1mph /  13km/h 42% 0in /  0.0mm
23:19 78.6 °F /  25.9 °C 53.1 °F /  11.7 °C 29.8in /  1010.3hPa SSO 4.8mph /  7.8km/h 8.1mph /  13km/h 41.1% 0in /  0.0mm
23:24 78.6 °F /  25.9 °C 52.9 °F /  11.6 °C 29.8in /  1010.2hPa Sur 5.2mph /  8.4km/h 8.1mph /  13km/h 40.9% 0in /  0.0mm
23:29 78.6 °F /  25.9 °C 52.5 °F /  11.4 °C 29.8in /  1010.2hPa Sur 5.1mph /  8.2km/h 7mph /  11.3km/h 40.3% 0in /  0.0mm
23:34 78.6 °F /  25.9 °C 52.2 °F /  11.2 °C 29.8in /  1010.2hPa Sur 4.7mph /  7.6km/h 6.9mph /  11.1km/h 39.8% 0in /  0.0mm
23:39 79 °F /  26.1 °C 51.8 °F /  11 °C 29.8in /  1010.2hPa SSO 4.7mph /  7.6km/h 7mph /  11.3km/h 38.8% 0in /  0.0mm
23:44 79.2 °F /  26.2 °C 52 °F /  11.1 °C 29.8in /  1010.2hPa SSO 4.7mph /  7.6km/h 7.4mph /  11.9km/h 38.7% 0in /  0.0mm
23:49 79.2 °F /  26.2 °C 51.6 °F /  10.9 °C 29.8in /  1010.2hPa SSO 4.7mph /  7.6km/h 7mph /  11.3km/h 38.5% 0in /  0.0mm
23:54 79 °F /  26.1 °C 51.3 °F /  10.7 °C 29.8in /  1010.2hPa SSO 4.7mph /  7.6km/h 7mph /  11.3km/h 38% 0in /  0.0mm
23:59 79 °F /  26.1 °C 51.3 °F /  10.7 °C 29.8in /  1010.2hPa Sur 4.6mph /  7.4km/h 7mph /  11.3km/h 38.3% 0in /  0.0mm
Murcia-Puente Tocinos, Espa?a
Compliments of Weather Underground - 3.25 mb

La estación de MeteoMurcia.com, publica sus datos en los siguientes proyectos:

Weather Underground PWS IMURCIAP2 Meteoclimatic www.awekas.at

W3Counter
Web Analytics